Date,TemperatureHighF,TemperatureAvgF,TemperatureLowF,DewpointHighF,DewpointAvgF,DewpointLowF,HumidityHigh,HumidityAvg,HumidityLow,PressureMaxIn,PressureMinIn,WindSpeedMaxMPH,WindSpeedAvgMPH,GustSpeedMaxMPH,PrecipitationSumIn
2013-1-1,32.5,27.5,19.0,31.2,23.6,14.4,96,85,73,30.18,30.06,2,0,4,0.00
2013-1-2,24.9,17.6,9.6,16.7,13.1,7.5,92,83,65,30.29,30.15,1,0,4,0.00
2013-1-3,30.7,22.3,7.6,23.8,16.7,5.5,92,80,58,30.32,30.24,2,1,5,0.00
2013-1-4,32.6,27.6,22.8,24.0,21.2,17.8,84,77,67,30.34,30.27,4,1,5,0.00
2013-1-5,38.9,28.0,14.7,29.6,22.9,12.8,94,82,66,30.41,30.20,1,0,5,0.18
2013-1-6,37.7,32.7,26.7,33.0,28.6,23.4,93,85,77,30.32,30.02,4,1,4,0.13
2013-1-7,36.2,29.8,23.7,27.8,25.5,21.7,92,84,68,30.50,30.30,1,0,4,0.07
2013-1-8,44.9,30.7,19.6,34.6,26.6,17.9,95,85,67,30.38,30.27,1,0,2,0.16
2013-1-9,46.8,39.3,30.2,40.6,34.8,27.8,93,84,75,30.44,30.23,2,0,4,0.17
2013-1-10,41.8,35.0,25.2,32.5,29.6,24.0,96,82,69,30.58,30.22,2,1,3,0.01
2013-1-11,60.9,49.9,41.1,55.0,46.5,33.4,98,89,73,30.19,29.90,2,1,4,0.32
2013-1-12,63.4,55.6,47.2,61.2,54.1,45.8,99,95,83,30.03,29.84,2,0,4,0.00
2013-1-13,64.2,56.8,38.2,61.0,54.8,37.2,97,93,82,30.02,29.75,5,2,5,0.43
2013-1-14,37.3,28.5,24.8,36.0,24.6,21.5,95,85,81,30.46,30.05,3,1,5,0.00
2013-1-15,32.3,28.0,22.6,24.7,22.8,20.4,91,81,73,30.43,30.19,2,1,3,0.00
2013-1-16,35.3,32.4,30.0,29.2,27.9,26.2,90,84,73,30.07,29.98,2,0,3,0.00
2013-1-17,37.3,33.3,26.3,30.5,27.5,18.8,89,79,72,30.34,30.09,4,1,9,0.00
2013-1-18,35.5,26.8,16.3,25.8,18.9,12.9,89,73,57,30.54,30.25,2,1,9,0.00
2013-1-19,52.6,42.6,33.2,31.8,28.8,25.3,75,59,43,30.23,29.87,4,2,6,0.00
2013-1-20,44.2,31.2,23.4,36.1,20.1,14.5,73,63,55,30.21,29.84,5,2,10,0.00
2013-1-21,23.7,18.9,9.9,18.6,11.8,2.4,83,74,57,30.23,30.07,6,2,10,0.00
2013-1-22,11.7,8.0,5.5,2.9,-0.3,-2.0,76,68,64,30.38,30.24,3,2,6,0.00
2013-1-23,20.8,14.9,8.4,14.3,5.7,0.9,87,68,48,30.39,30.14,1,0,4,0.00
2013-1-24,19.7,16.2,11.8,14.6,10.6,7.6,88,79,65,30.62,30.14,4,1,7,0.00
2013-1-25,22.6,19.3,16.1,20.1,13.7,7.6,90,79,63,30.54,30.08,2,1,7,0.00
2013-1-26,27.2,24.3,13.9,22.5,19.6,10.7,90,82,73,30.48,30.15,2,1,4,0.00
2013-1-27,34.1,21.5,10.7,24.4,16.1,8.3,91,81,66,30.54,30.37,2,1,3,0.09
2013-1-28,49.8,42.1,33.9,48.1,41.2,32.9,98,97,94,30.17,30.02,2,1,4,0.31
2013-1-29,64.2,56.9,48.1,57.5,53.6,47.8,99,89,79,30.02,29.66,2,1,4,0.02
2013-1-30,62.1,54.4,34.5,57.2,51.1,31.3,97,89,81,29.61,29.22,7,2,7,0.54
2013-1-31,33.9,25.6,20.0,29.6,20.4,14.7,90,80,69,29.95,29.43,6,4,15,0.00
2013-2-1,17.1,12.3,7.3,13.6,5.9,1.9,86,75,68,30.41,29.98,5,2,15,0.00
2013-2-2,26.9,20.4,9.9,24.0,17.0,5.2,92,86,79,30.39,30.03,2,0,4,0.00
2013-2-3,25.1,20.7,16.4,22.3,16.7,12.4,89,85,73,30.13,29.94,4,1,6,0.00
2013-2-4,28.9,22.5,14.6,27.4,19.5,11.7,94,88,71,30.14,29.89,2,0,6,0.01
2013-2-5,31.8,28.2,24.3,29.2,25.0,22.6,94,88,77,30.00,29.90,2,0,2,0.04
2013-2-6,32.9,30.8,28.2,29.4,24.9,20.5,90,79,60,30.29,30.01,2,1,5,0.04
2013-2-7,48.0,38.4,25.1,34.3,30.0,20.9,86,72,59,30.26,29.87,2,1,5,0.06
2013-2-8,43.1,34.0,27.1,38.5,29.5,20.8,95,84,76,30.32,29.78,6,3,9,0.16
2013-2-9,36.5,26.5,17.2,22.3,19.6,14.8,92,76,55,30.48,30.33,2,0,9,0.00
2013-2-10,49.1,37.9,23.9,41.6,27.3,18.9,84,66,48,30.32,29.85,3,1,5,0.00
2013-2-11,51.5,44.4,37.1,47.9,37.2,27.7,95,76,61,29.99,29.75,7,3,14,0.01
2013-2-12,46.1,36.3,29.2,31.7,27.6,25.0,84,71,55,30.13,29.94,5,2,14,0.00
2013-2-13,32.3,29.3,24.4,28.0,26.0,22.4,93,87,81,29.94,29.78,2,0,4,0.00
2013-2-14,45.2,35.6,25.0,39.1,31.1,23.5,94,84,76,29.99,29.86,2,1,4,0.00
2013-2-15,33.8,29.8,25.5,30.3,27.1,23.5,93,89,82,30.15,29.99,3,0,4,0.05
2013-2-16,29.0,22.4,15.0,22.8,17.5,10.8,92,82,67,30.15,30.02,4,1,7,0.00
2013-2-17,24.3,18.1,13.7,13.5,10.6,6.3,85,73,57,30.29,30.11,3,1,7,0.00
2013-2-18,50.1,33.7,13.4,36.3,22.8,10.0,86,65,52,30.30,29.80,3,1,5,0.00
2013-2-19,46.6,31.5,21.1,39.8,27.2,15.0,95,84,74,30.08,29.65,6,3,7,0.13
2013-2-20,22.1,19.7,16.1,17.0,13.9,11.1,87,78,69,30.33,30.08,4,2,7,0.00
2013-2-21,26.3,23.1,20.2,19.1,17.4,14.6,88,78,73,30.40,30.27,3,1,4,0.00
2013-2-22,39.7,32.1,25.3,37.9,29.3,18.8,97,89,76,30.23,29.96,4,1,6,0.10
2013-2-23,39.3,34.3,29.1,32.5,29.2,25.4,95,82,66,30.01,29.92,3,1,6,0.00
2013-2-24,34.2,30.0,26.7,25.4,23.5,21.6,86,77,65,30.19,29.95,2,1,6,0.00
2013-2-25,43.8,33.3,20.3,28.7,25.0,18.3,94,73,51,30.24,30.04,3,1,6,0.00
2013-2-26,41.8,37.4,32.4,41.0,33.4,25.4,97,86,68,30.02,29.48,5,3,6,0.74
2013-2-27,42.3,37.5,33.2,41.5,35.9,31.4,97,94,86,29.69,29.50,2,1,6,0.17
2013-2-28,36.5,33.8,31.3,34.2,31.6,29.7,95,91,86,29.93,29.66,4,2,5,0.05
2013-3-1,33.2,30.5,26.9,29.6,26.1,21.4,88,84,77,30.08,29.94,3,1,5,0.00
2013-3-2,28.3,26.6,25.6,23.3,22.4,20.9,87,84,80,30.10,30.05,3,2,5,0.00
2013-3-3,29.4,26.1,23.5,21.4,19.2,16.7,87,75,65,30.12,30.06,3,1,6,0.00
2013-3-4,38.8,28.5,15.6,22.9,19.1,13.4,93,70,46,30.23,30.10,2,0,4,0.00
2013-3-5,38.8,34.3,30.6,31.3,28.0,23.4,95,78,65,30.14,29.59,3,1,6,0.07
2013-3-6,36.7,33.4,30.8,32.2,30.7,28.5,96,90,83,30.24,29.59,3,1,6,0.36
2013-3-7,39.2,34.4,31.2,31.8,29.3,27.5,86,81,72,30.38,30.22,3,1,5,0.29
2013-3-8,43.1,35.4,27.0,31.7,28.3,23.9,88,76,62,30.49,30.38,2,1,5,0.03
2013-3-9,32.0,27.8,24.0,28.3,25.2,22.3,95,90,84,30.42,30.38,1,0,5,0.00
2013-3-10,68.9,58.2,44.7,43.5,39.2,33.2,82,51,36,30.07,29.84,3,1,4,0.01
2013-3-11,61.9,50.4,41.5,51.0,44.9,36.1,97,83,44,29.85,29.57,4,2,6,0.67
2013-3-12,39.8,36.0,31.9,35.1,31.4,29.8,93,83,75,30.02,29.81,3,1,6,0.01
2013-3-13,32.6,29.7,27.0,31.1,24.6,20.5,94,81,71,30.28,29.98,5,3,11,0.01
2013-3-14,40.5,31.0,22.3,25.6,21.4,17.6,82,68,53,30.35,30.19,3,1,11,0.00
2013-3-15,49.6,38.2,26.7,41.2,32.2,22.3,94,79,66,30.17,29.88,2,0,4,0.14
2013-3-16,49.0,40.8,31.8,46.4,39.0,29.5,97,94,88,30.02,29.62,3,1,5,0.13
2013-3-17,36.6,33.4,31.3,28.9,27.6,25.5,89,79,69,30.19,30.04,3,1,5,0.00
2013-3-18,49.1,39.5,31.7,48.6,37.6,26.4,98,93,78,30.10,29.62,5,2,6,0.86
2013-3-19,38.4,34.1,28.7,35.4,25.2,21.0,89,70,55,30.05,29.79,6,3,16,0.00
2013-3-20,34.1,30.1,23.3,22.1,18.8,13.9,71,62,55,30.05,29.95,5,2,16,0.00
2013-3-21,29.2,24.3,18.2,21.8,16.6,12.7,84,73,64,30.03,29.95,4,1,6,0.00
2013-3-22,41.9,30.2,20.8,24.2,20.2,17.0,85,68,47,30.08,30.02,3,1,6,0.00
2013-3-23,45.4,33.6,21.5,27.8,23.6,18.0,88,68,47,30.10,30.01,3,1,5,0.00
2013-3-24,36.8,33.7,30.1,29.2,25.6,23.6,85,72,60,30.00,29.49,4,2,7,0.00
2013-3-25,35.0,32.1,30.1,32.4,30.4,28.8,95,93,89,29.89,29.42,3,1,7,0.11
2013-3-26,40.9,35.2,31.7,32.4,30.2,27.1,95,83,59,30.18,29.91,5,2,9,0.26
2013-3-27,42.1,37.1,33.0,30.9,28.8,26.0,87,73,54,30.27,30.18,4,2,9,0.00
2013-3-28,47.4,38.6,29.6,31.3,27.7,23.4,82,66,52,30.32,30.26,4,2,9,0.00
2013-3-29,52.3,39.9,26.1,34.2,29.1,23.3,92,68,46,30.32,30.22,3,1,9,0.00
2013-3-30,56.6,42.3,25.7,35.1,29.8,24.0,94,65,39,30.26,29.99,2,0,6,0.00
2013-3-31,55.0,46.7,40.8,47.0,39.7,29.6,95,77,63,29.98,29.74,2,0,5,0.05
2013-4-1,47.5,40.2,36.1,42.3,30.4,19.9,84,69,48,30.03,29.75,5,2,5,0.00
2013-4-2,42.3,33.8,21.9,21.3,19.4,16.1,78,57,42,30.27,30.15,4,2,6,0.00
2013-4-3,44.0,35.0,24.3,21.9,18.0,15.6,69,51,35,30.44,30.28,4,1,8,0.00
2013-4-4,53.2,36.2,25.8,23.4,18.7,14.9,68,51,29,30.40,30.01,2,0,8,0.00
2013-4-5,54.2,42.3,28.3,36.2,27.2,22.0,79,57,42,30.17,29.98,4,1,6,0.00
2013-4-6,59.0,45.9,31.3,27.6,22.9,15.7,68,42,28,30.27,29.94,3,2,6,0.00
2013-4-7,72.3,62.3,53.9,49.4,41.9,27.6,64,48,36,29.97,29.84,5,2,7,0.00
2013-4-8,71.2,61.9,51.2,55.9,51.5,42.9,90,70,55,29.98,29.85,3,1,7,0.00
2013-4-9,81.4,67.3,52.6,61.7,56.3,50.6,94,70,47,30.04,29.88,4,1,6,0.00
2013-4-10,81.6,69.5,58.6,67.1,61.1,56.9,96,76,58,29.92,29.75,4,1,4,0.10
2013-4-11,64.3,58.1,49.1,62.5,57.0,47.7,98,96,89,29.84,29.55,2,1,4,1.02
2013-4-12,57.8,47.4,41.9,57.5,43.7,35.8,99,87,73,29.90,29.46,4,2,5,0.21
2013-4-13,49.6,43.4,36.6,39.5,36.3,32.2,84,76,66,30.05,29.90,4,1,5,0.00
2013-4-14,65.2,49.4,33.5,45.1,38.6,30.6,93,70,47,30.14,29.93,3,1,5,0.00
2013-4-15,69.6,60.9,47.9,55.6,49.6,40.7,79,67,55,30.00,29.91,3,1,6,0.00
2013-4-16,76.1,62.7,55.6,65.1,57.1,52.2,97,82,64,30.15,29.95,5,1,6,0.30
2013-4-17,65.8,58.6,51.7,60.4,55.8,50.9,98,91,82,30.23,30.00,3,1,5,0.15
2013-4-18,83.7,71.4,59.6,66.4,60.3,57.8,94,71,46,30.00,29.64,6,2,10,0.00
2013-4-19,73.2,51.7,39.8,60.3,43.7,31.8,95,75,57,29.91,29.41,5,3,10,0.48
2013-4-20,45.6,39.9,34.4,33.3,30.1,27.8,89,69,53,30.42,29.92,4,2,8,0.00
2013-4-21,51.9,41.4,27.5,32.3,27.8,23.9,86,60,41,30.59,30.43,3,1,8,0.00
2013-4-22,67.2,51.6,33.5,43.3,36.5,27.6,81,58,40,30.43,30.17,2,1,5,0.00
2013-4-23,72.1,58.9,42.1,52.2,43.5,33.3,78,58,41,30.17,29.89,3,1,5,0.00
2013-4-24,63.2,50.5,35.7,57.0,46.1,33.1,96,85,66,30.19,29.74,4,1,6,0.78
2013-4-25,55.0,43.5,31.2,40.1,34.7,28.2,97,74,49,30.38,30.20,4,1,7,0.01
2013-4-26,59.9,46.6,30.1,37.6,33.5,27.8,93,63,38,30.48,30.37,2,1,7,0.00
2013-4-27,70.0,55.7,36.8,48.8,40.0,33.5,90,60,35,30.38,30.10,3,1,3,0.00
2013-4-28,62.7,57.3,53.6,59.5,54.3,47.9,98,90,71,30.09,29.82,2,1,3,0.68
2013-4-29,65.2,59.2,54.7,59.4,56.4,52.7,99,91,74,29.97,29.86,1,0,4,0.28
2013-4-30,75.1,61.8,47.0,59.8,54.6,46.4,98,79,56,30.07,29.97,2,1,4,0.00
2013-5-1,79.3,67.0,52.1,61.7,57.0,50.4,95,72,49,30.20,30.06,3,1,3,0.01
2013-5-2,73.8,67.0,56.0,58.8,55.5,51.6,85,67,57,30.24,30.10,2,1,3,0.00
2013-5-3,75.8,67.6,57.9,56.2,50.0,41.3,90,57,30,30.12,30.00,3,1,10,0.00
2013-5-4,71.2,63.8,56.4,51.1,46.6,43.2,66,54,47,30.06,29.97,4,2,10,0.00
2013-5-5,71.5,63.5,52.6,46.1,43.9,36.0,76,51,33,30.02,29.91,3,1,5,0.00
2013-5-6,66.7,61.0,54.5,58.7,49.7,35.3,90,69,33,29.98,29.93,2,1,4,0.05
2013-5-7,67.9,61.0,55.9,60.2,56.8,53.9,96,86,71,29.97,29.92,3,1,3,0.05
2013-5-8,70.8,62.0,54.4,57.7,55.3,52.7,95,80,56,29.97,29.91,2,1,5,0.00
2013-5-9,79.9,66.4,51.9,61.2,55.2,50.8,97,71,41,29.99,29.92,1,0,5,0.01
2013-5-10,72.3,63.3,58.7,64.7,61.0,57.9,99,93,75,29.94,29.76,2,0,2,0.00
2013-5-11,61.3,52.6,45.5,61.0,49.8,40.6,100,91,80,29.94,29.79,1,0,3,0.30
2013-5-12,52.1,44.9,36.7,40.2,35.6,32.7,96,72,50,30.13,29.96,4,1,5,0.00
2013-5-13,56.0,45.6,34.4,36.3,34.2,30.8,93,67,43,30.19,30.11,2,0,5,0.00
2013-5-14,76.0,57.3,37.1,58.1,45.9,34.4,90,68,48,30.16,29.81,3,1,3,0.00
2013-5-15,86.0,75.8,65.0,63.5,61.3,58.2,83,63,45,29.81,29.73,3,1,7,0.00
2013-5-16,77.3,70.7,62.4,64.7,59.9,52.7,94,71,46,29.94,29.76,1,0,7,0.07
2013-5-17,79.8,67.5,57.1,66.6,61.0,56.3,99,82,48,30.07,29.94,1,0,3,0.00
2013-5-18,78.4,67.5,60.0,65.5,60.8,55.4,93,80,60,30.07,29.96,2,0,3,0.04
2013-5-19,82.4,71.3,59.5,69.0,64.9,58.4,97,81,64,30.00,29.89,1,0,3,0.00
2013-5-20,86.8,75.3,65.0,73.0,68.5,64.1,98,81,59,29.97,29.85,1,0,4,0.00
2013-5-21,87.1,77.3,68.5,69.0,66.4,64.1,93,71,48,29.88,29.75,2,0,5,0.00
2013-5-22,81.8,73.3,63.9,66.7,64.1,60.9,92,74,58,29.80,29.69,2,1,5,0.04
2013-5-23,72.3,62.5,48.1,63.5,58.4,45.9,97,87,61,30.02,29.74,3,1,5,0.36
2013-5-24,57.3,49.6,42.8,45.0,40.9,38.9,91,73,52,30.32,30.04,4,2,10,0.00
2013-5-25,62.6,51.3,36.0,47.3,41.5,34.7,97,72,49,30.39,30.25,2,1,10,0.00
2013-5-26,67.1,54.8,40.1,42.9,39.8,35.9,93,61,36,30.34,30.21,2,1,3,0.00
2013-5-27,67.9,57.9,49.2,53.8,48.3,39.1,92,72,56,30.25,29.99,2,0,3,0.09
2013-5-28,83.4,72.5,61.7,68.5,63.0,54.7,97,74,52,30.01,29.91,2,1,3,0.37
2013-5-29,87.0,77.7,68.8,66.5,62.6,58.3,75,61,38,30.02,29.94,2,1,3,0.00
2013-5-30,86.7,77.5,65.4,70.1,66.3,62.9,93,70,53,30.12,29.98,2,1,4,0.00
2013-5-31,82.3,73.0,66.8,70.7,66.5,62.8,97,81,63,30.03,29.91,4,1,5,0.22
2013-6-1,81.6,73.8,66.0,70.8,68.0,65.3,98,83,66,29.95,29.73,3,1,5,0.16
2013-6-2,74.9,70.0,65.3,67.9,63.2,60.3,97,80,63,29.88,29.74,2,0,4,0.00
2013-6-3,65.0,60.1,55.3,59.1,53.8,49.9,89,80,65,30.06,29.89,2,1,3,0.00
2013-6-4,65.7,51.8,43.4,48.3,45.1,41.2,94,80,53,30.17,30.07,2,0,4,0.00
2013-6-5,78.7,69.7,53.2,60.0,54.5,46.1,80,60,46,30.09,29.86,2,1,2,0.00
2013-6-6,68.8,62.6,57.6,63.9,60.4,56.5,98,93,69,29.88,29.76,2,0,3,0.31
2013-6-7,64.1,59.0,55.6,57.5,55.7,54.6,97,89,79,29.89,29.81,2,1,4,0.00
2013-6-8,74.3,63.5,53.0,58.6,56.0,51.9,98,79,54,30.05,29.89,1,0,4,0.00
2013-6-9,82.2,72.3,62.1,68.0,63.0,57.5,89,74,52,30.07,29.92,1,0,2,0.01
2013-6-10,77.4,69.6,65.9,68.7,65.6,62.7,98,88,68,29.90,29.73,1,0,2,0.75
2013-6-11,66.5,64.8,62.8,64.4,63.2,61.6,97,95,92,29.88,29.79,0,0,2,0.00
2013-6-12,87.7,80.3,66.6,76.3,72.3,64.5,95,77,68,29.88,29.68,1,0,3,0.00
2013-6-13,81.1,69.9,64.3,73.6,62.8,57.1,99,80,54,29.85,29.51,4,1,6,0.69
2013-6-14,74.7,67.1,59.0,60.3,58.7,57.0,93,75,59,30.04,29.86,3,1,6,0.00
2013-6-15,79.5,67.8,52.0,64.4,59.7,50.9,98,77,57,30.11,29.95,1,0,3,0.00
2013-6-16,78.0,72.1,68.0,69.0,66.3,63.4,94,82,74,29.95,29.89,2,0,3,0.03
2013-6-17,84.0,74.8,66.4,72.1,67.3,64.2,97,79,52,29.94,29.85,1,0,3,0.00
2013-6-18,78.7,71.8,63.9,69.1,65.5,57.6,94,81,63,29.97,29.82,3,1,6,0.00
2013-6-19,75.7,66.1,56.0,57.1,53.2,49.1,94,67,40,30.12,29.98,3,1,6,0.00
2013-6-20,81.8,69.5,52.4,60.6,56.1,50.4,95,65,43,30.20,30.13,1,0,4,0.00
2013-6-21,86.0,73.5,57.9,65.5,60.9,55.6,93,67,42,30.20,30.10,1,0,3,0.00
2013-6-22,89.1,76.3,64.8,73.3,68.5,62.4,98,78,57,30.12,30.01,2,0,3,0.63
2013-6-23,88.0,76.8,65.0,74.3,68.5,63.9,99,78,53,30.11,29.99,1,0,5,0.01
2013-6-24,85.0,76.5,64.1,71.5,68.2,62.3,96,76,63,30.10,29.96,1,0,5,0.00
2013-6-25,89.1,79.6,69.9,76.9,72.2,67.8,94,79,63,30.02,29.83,2,0,4,0.02
2013-6-26,85.1,74.1,66.8,75.9,69.7,65.6,99,87,66,29.90,29.75,2,0,4,0.63
2013-6-27,83.3,74.0,67.4,73.4,69.9,66.6,99,88,70,29.77,29.64,1,0,2,0.06
2013-6-28,79.7,72.8,66.0,71.0,66.8,62.0,96,82,65,29.64,29.51,2,0,2,0.71
2013-6-29,80.0,67.2,60.2,68.1,63.2,59.3,98,88,67,29.65,29.53,1,0,2,0.16
2013-6-30,76.8,68.0,61.7,69.2,64.5,61.1,99,89,72,29.83,29.66,2,1,4,0.01
2013-7-1,76.5,69.5,64.7,69.9,65.8,62.0,97,88,78,29.90,29.81,2,1,5,0.09
2013-7-2,68.9,67.5,67.2,66.8,66.0,65.7,96,95,93,29.95,29.90,0,0,5,0.00
2013-7-3,83.0,77.0,67.4,71.0,69.6,66.5,98,79,65,30.09,30.00,1,0,2,0.00
2013-7-4,74.6,72.0,70.1,70.8,69.6,68.7,96,92,87,30.13,30.07,1,0,2,0.12
2013-7-5,77.6,71.0,66.7,70.8,68.9,66.4,99,93,79,30.13,30.06,0,0,1,0.54
2013-7-6,81.8,73.3,70.0,74.0,71.2,67.9,99,94,75,30.12,29.99,1,0,3,1.50
2013-7-7,79.2,72.1,66.2,70.3,67.7,63.4,97,87,70,30.08,29.99,2,0,3,0.01
2013-7-8,79.3,71.3,64.1,75.9,69.9,63.2,99,95,88,30.10,30.01,1,0,2,0.72
2013-7-9,86.0,76.0,71.5,79.5,73.7,70.2,99,93,77,30.03,29.94,4,0,4,0.66
2013-7-10,87.6,75.0,67.2,79.9,72.4,65.8,100,92,76,29.96,29.82,3,0,4,0.11
2013-7-11,75.5,70.5,63.3,67.2,63.8,58.4,97,80,62,30.00,29.91,3,1,6,0.00
2013-7-12,77.8,68.8,58.3,64.4,60.7,56.6,96,77,57,30.07,30.00,3,1,6,0.00
2013-7-13,82.7,73.9,63.3,69.5,66.5,61.8,96,79,61,30.14,30.06,2,1,5,0.00
2013-7-14,87.3,79.0,67.8,76.0,71.8,66.3,96,79,66,30.20,30.13,1,0,3,0.00
2013-7-15,88.7,81.4,73.3,75.8,73.4,70.3,91,78,62,30.27,30.20,1,0,2,0.00
2013-7-16,90.8,81.6,71.3,76.8,74.3,70.4,98,80,61,30.30,30.21,2,0,3,0.00
2013-7-17,90.0,82.6,73.6,76.6,74.8,72.7,98,79,62,30.28,30.14,1,0,3,0.00
2013-7-18,91.4,82.9,75.4,78.0,74.7,71.9,91,77,61,30.16,29.98,1,0,3,0.00
2013-7-19,88.6,80.8,73.7,77.5,74.1,71.2,93,80,68,29.99,29.83,2,0,3,0.00
2013-7-20,77.6,74.7,69.5,73.6,71.9,68.6,97,91,86,29.89,29.79,2,0,3,0.59
2013-7-21,82.4,75.8,69.7,73.4,70.8,68.8,97,85,68,29.94,29.86,2,0,3,0.01
2013-7-22,75.6,71.8,68.7,71.8,69.6,67.8,98,93,86,29.90,29.74,1,0,3,1.26
2013-7-23,85.6,75.3,67.2,75.5,70.9,66.9,99,87,69,29.77,29.66,1,0,3,0.03
2013-7-24,71.6,67.7,61.3,67.2,60.2,55.8,91,77,64,29.98,29.77,3,2,5,0.00
2013-7-25,74.9,65.0,53.3,57.8,55.1,52.2,96,72,51,30.07,29.99,3,1,5,0.00
2013-7-26,79.7,68.5,54.8,63.2,59.7,53.7,97,75,53,30.08,29.95,1,0,4,0.00
2013-7-27,74.2,67.2,63.3,67.8,63.6,60.7,98,89,69,29.94,29.79,1,0,2,0.41
2013-7-28,69.7,62.9,54.1,59.6,55.6,53.0,97,78,61,30.02,29.86,2,0,4,0.00
2013-7-29,73.6,65.9,59.0,59.3,56.9,54.4,87,74,60,30.17,30.02,1,0,4,0.00
2013-7-30,78.2,67.9,56.6,63.2,60.2,55.5,97,78,58,30.22,30.11,2,0,2,0.00
2013-7-31,73.0,68.9,65.6,67.5,65.4,62.9,97,89,82,30.11,29.92,0,0,2,0.08
2013-8-1,78.7,71.5,66.8,67.3,65.9,64.0,99,84,62,29.93,29.87,2,0,3,0.10
2013-8-2,77.3,69.3,58.1,66.4,62.4,57.0,97,80,62,30.00,29.89,1,0,3,0.00
2013-8-3,78.7,71.1,65.2,68.6,65.4,61.2,99,83,62,29.98,29.93,2,0,4,0.24
2013-8-4,74.3,67.2,60.4,62.2,59.0,56.8,93,76,57,30.11,29.98,3,1,4,0.00
2013-8-5,75.4,66.0,53.2,61.9,58.4,52.1,97,78,60,30.12,29.98,1,0,3,0.00
2013-8-6,80.5,72.3,63.5,65.5,62.2,58.9,86,72,57,29.98,29.90,1,0,1,0.00
2013-8-7,84.2,75.8,67.6,75.4,70.3,64.4,93,84,72,29.92,29.84,1,0,3,0.00
2013-8-8,82.6,73.9,70.0,75.7,72.0,69.2,99,94,78,29.92,29.86,2,0,6,1.81
2013-8-9,77.0,70.3,64.5,70.6,67.3,64.2,100,91,66,30.00,29.87,1,0,6,0.40
2013-8-10,81.3,72.9,65.1,69.2,66.8,64.5,98,82,64,30.08,30.00,1,0,1,0.00
2013-8-11,80.9,72.9,63.2,73.0,67.4,62.6,98,84,67,30.07,30.00,2,0,3,0.00
2013-8-12,83.9,73.3,62.0,72.0,66.6,61.1,98,81,63,30.04,29.85,1,0,3,0.00
2013-8-13,73.1,68.3,58.6,68.3,62.0,52.4,96,81,62,30.00,29.79,2,1,2,0.00
2013-8-14,66.3,58.4,50.3,53.8,51.6,48.1,92,79,63,30.16,30.01,1,0,3,0.00
2013-8-15,71.5,60.9,48.9,56.2,53.0,48.1,98,78,55,30.18,30.09,1,0,3,0.00
2013-8-16,73.7,64.2,53.0,58.5,55.5,51.7,96,75,55,30.16,30.11,2,0,3,0.00
2013-8-17,78.7,67.9,57.3,63.0,59.1,55.3,93,75,54,30.19,30.13,2,0,3,0.00
2013-8-18,77.6,67.4,59.0,66.9,62.3,57.2,94,84,69,30.17,30.09,1,0,3,0.00
2013-8-19,80.3,70.5,61.8,67.3,63.3,60.9,98,80,52,30.12,30.05,1,0,2,0.00
2013-8-20,81.7,71.1,59.0,69.5,64.1,58.2,98,80,60,30.16,30.08,0,0,2,0.00
2013-8-21,83.7,71.5,61.3,72.1,65.7,60.4,98,83,67,30.15,30.04,1,0,1,0.00
2013-8-22,83.0,72.9,63.6,72.2,68.1,62.3,97,86,70,30.09,29.98,2,0,2,0.05
2013-8-23,81.3,73.2,67.2,68.4,66.2,60.3,97,80,60,30.13,30.00,3,1,5,0.01
2013-8-24,81.3,69.4,55.7,62.5,59.6,54.3,95,73,51,30.26,30.13,2,0,5,0.00
2013-8-25,83.6,71.6,57.8,66.4,60.9,56.1,96,72,49,30.33,30.19,1,0,2,0.00
2013-8-26,85.1,74.3,61.5,72.4,66.7,59.8,96,78,61,30.23,30.02,1,0,1,0.00
2013-8-27,84.2,76.8,69.4,76.3,72.2,67.7,95,86,76,30.02,29.90,1,0,1,0.00
2013-8-28,85.0,78.9,73.8,76.3,73.9,71.3,94,85,75,29.93,29.81,3,0,3,0.02
2013-8-29,83.1,74.9,69.5,72.4,70.4,68.9,98,87,67,30.02,29.93,2,0,3,0.00
2013-8-30,86.8,75.9,64.9,73.2,69.4,64.3,99,82,61,29.98,29.80,1,0,3,0.00
2013-8-31,85.3,75.8,68.0,75.9,71.4,67.0,98,87,71,29.81,29.75,2,0,3,0.40
2013-9-1,83.8,75.2,67.2,73.4,69.9,66.0,96,84,69,29.79,29.72,0,0,2,0.00
2013-9-2,80.4,74.0,68.6,73.5,69.1,61.1,98,85,71,29.84,29.74,0,0,0,0.00
2013-9-3,66.6,60.9,55.2,59.9,55.5,53.2,94,83,74,30.04,29.85,2,0,3,0.00
2013-9-4,79.6,64.8,50.8,62.4,57.1,50.0,98,79,53,30.13,30.05,1,0,3,0.00
2013-9-5,77.4,66.3,57.7,65.6,57.7,48.8,95,76,48,30.20,30.08,2,1,6,0.00
2013-9-6,75.4,61.7,48.1,54.0,49.8,46.2,97,69,37,30.25,30.11,2,0,6,0.00
2013-9-7,82.8,67.6,50.6,67.2,58.9,49.2,97,76,59,30.10,29.93,1,0,2,0.00
2013-9-8,78.7,73.1,67.7,70.5,67.3,63.7,91,82,75,29.99,29.91,3,1,6,0.00
2013-9-9,87.7,74.7,61.4,72.6,67.1,60.2,96,79,59,30.02,29.92,1,0,6,0.00
2013-9-10,93.1,82.5,72.8,78.2,73.7,69.7,91,76,57,30.06,29.98,1,0,6,0.00
2013-9-11,87.3,78.1,71.9,76.7,72.5,69.1,96,83,67,30.10,29.95,1,0,6,0.27
2013-9-12,76.6,70.7,63.4,72.0,67.8,61.9,98,91,73,29.95,29.81,3,0,3,0.61
2013-9-13,61.6,57.4,52.0,58.2,51.3,47.7,95,81,68,30.08,29.87,2,1,4,0.00
2013-9-14,65.4,54.2,43.4,50.3,46.8,42.1,95,78,53,30.18,30.08,2,0,4,0.00
2013-9-15,72.9,58.8,44.7,58.4,50.9,43.6,97,77,52,30.16,30.03,1,0,4,0.05
2013-9-16,68.4,61.0,56.1,57.8,55.5,51.3,98,83,63,30.29,30.09,2,1,3,0.07
2013-9-17,71.0,58.6,46.7,55.2,51.4,45.6,97,79,56,30.34,30.20,1,0,3,0.00
2013-9-18,75.6,63.8,54.1,64.1,58.4,51.4,93,83,67,30.19,30.04,0,0,2,0.00
2013-9-19,73.1,68.0,65.7,69.2,66.1,63.9,97,94,86,30.08,29.96,0,0,1,0.00
2013-9-20,84.9,73.0,66.2,71.3,68.3,65.9,99,87,60,29.98,29.76,1,0,2,0.59
2013-9-21,69.6,64.7,57.7,67.6,60.2,50.2,99,87,61,29.83,29.66,2,0,2,1.34
2013-9-22,61.9,55.2,49.7,50.0,47.6,46.2,93,76,58,30.03,29.84,2,0,6,0.00
2013-9-23,59.5,48.3,43.0,49.3,44.9,41.9,97,89,66,30.15,30.03,1,0,6,0.00
2013-9-24,66.8,54.9,41.4,52.5,47.9,40.3,97,79,58,30.13,29.95,1,0,2,0.00
2013-9-25,69.4,58.0,48.3,56.5,51.7,47.0,96,81,59,29.96,29.88,2,0,3,0.00
2013-9-26,76.4,62.4,50.8,56.7,52.2,48.7,97,73,38,30.08,29.93,2,1,3,0.00
2013-9-27,74.5,60.3,47.3,58.0,52.6,45.8,95,78,53,30.18,30.09,2,0,2,0.00
2013-9-28,75.8,62.7,48.9,58.9,54.4,47.8,97,77,53,30.19,30.07,1,0,2,0.00
2013-9-29,72.8,62.7,55.0,63.5,58.5,53.4,96,86,67,30.06,29.97,1,0,1,0.00
2013-9-30,71.6,65.2,61.6,63.1,60.8,58.9,95,86,74,30.01,29.93,1,0,1,0.00
2013-10-1,77.1,65.3,54.3,64.8,59.9,53.5,98,84,63,30.07,29.99,1,0,3,0.00
2013-10-2,79.3,67.6,59.0,69.1,63.9,57.7,98,89,71,30.09,30.01,1,0,3,0.00
2013-10-3,76.6,69.3,65.7,70.3,67.4,64.1,99,94,80,30.05,29.98,1,0,1,0.29
2013-10-4,80.2,69.0,62.3,70.4,66.9,61.7,99,93,72,30.06,30.00,2,0,2,0.58
2013-10-5,75.9,69.3,64.0,74.0,68.3,63.7,100,97,83,30.04,29.92,0,0,2,0.37
2013-10-6,75.3,66.7,52.1,68.2,64.9,51.0,100,94,78,29.91,29.66,1,0,1,1.04
2013-10-7,59.0,51.6,44.7,52.7,47.5,43.9,98,87,65,30.15,29.77,2,0,3,0.21
2013-10-8,65.0,52.2,40.2,50.1,46.0,39.2,98,82,55,30.30,30.16,1,0,3,0.00
2013-10-9,68.3,55.4,43.1,50.8,47.5,42.0,96,77,50,30.28,30.18,1,0,3,0.00
2013-10-10,71.7,55.6,42.2,55.9,48.1,40.9,96,78,51,30.20,30.07,2,0,3,0.00
2013-10-11,75.1,59.3,45.9,55.7,50.1,44.3,95,74,44,30.11,30.01,1,0,2,0.00
2013-10-12,71.7,61.2,51.5,62.2,56.6,50.1,97,85,72,30.11,30.05,1,0,2,0.00
2013-10-13,65.6,60.8,54.1,60.8,58.0,53.0,97,90,81,30.28,30.11,2,0,4,0.00
2013-10-14,67.7,56.2,46.5,53.4,50.2,45.1,96,82,59,30.34,30.21,3,0,4,0.00
2013-10-15,66.5,55.8,46.5,63.3,53.8,45.4,98,93,86,30.22,29.93,0,0,3,0.00
2013-10-16,66.0,62.0,52.5,63.2,59.1,47.8,98,91,79,29.94,29.84,1,0,2,0.10
2013-10-17,52.2,47.8,40.0,49.7,45.4,39.0,97,91,84,29.95,29.83,1,0,2,0.11
2013-10-18,62.5,51.2,42.5,50.6,45.0,41.4,97,81,56,30.02,29.93,1,0,2,0.00
2013-10-19,48.3,45.2,41.4,44.8,42.8,39.3,96,91,87,29.97,29.82,1,0,2,0.18
2013-10-20,61.4,48.3,37.8,46.0,41.3,36.0,94,78,55,30.02,29.97,1,0,2,0.00
2013-10-21,65.6,53.2,42.4,49.5,43.3,39.1,89,71,47,30.00,29.87,2,0,6,0.00
2013-10-22,49.9,42.6,33.0,45.3,33.8,30.0,92,73,50,30.02,29.89,1,0,6,0.05
2013-10-23,44.5,38.6,33.0,38.4,35.3,31.7,97,88,71,30.02,29.80,2,1,5,0.44
2013-10-24,43.5,37.6,31.8,34.9,32.5,30.1,95,83,59,30.23,30.01,1,0,5,0.00
2013-10-25,46.4,37.3,28.3,35.3,30.6,26.5,94,78,57,30.41,30.24,1,0,2,0.00
2013-10-26,46.4,40.8,33.0,38.7,32.1,27.8,81,71,57,30.28,29.93,2,0,2,0.00
2013-10-27,54.6,41.4,29.7,38.4,34.6,28.2,96,79,51,30.12,30.04,1,0,3,0.00
2013-10-28,57.5,43.2,30.1,40.5,35.4,28.8,97,77,47,30.31,30.11,1,0,3,0.00
2013-10-29,57.6,45.5,34.4,45.0,39.8,33.4,97,82,57,30.39,30.25,1,0,2,0.00
2013-10-30,63.9,55.0,46.7,58.2,50.6,42.6,96,85,79,30.23,30.04,1,0,3,0.00
2013-10-31,65.1,60.9,59.0,61.8,58.9,58.0,99,94,79,30.00,29.33,3,1,6,0.61
2013-11-1,62.5,54.9,49.2,62.2,50.2,46.1,99,85,67,29.67,29.30,3,1,6,0.16
2013-11-2,51.5,47.7,42.7,43.9,42.5,41.2,95,82,69,30.00,29.71,2,1,3,0.01
2013-11-3,50.5,43.5,39.4,40.8,38.3,33.9,96,83,63,30.41,30.04,1,0,3,0.00
2013-11-4,53.3,44.5,35.6,40.4,35.4,30.3,83,71,56,30.46,30.35,1,0,3,0.00
2013-11-5,59.0,51.9,46.2,46.4,42.8,40.4,81,71,62,30.43,30.25,0,0,2,0.00
2013-11-6,64.0,54.0,46.5,57.4,45.5,39.3,94,73,61,30.24,29.96,4,1,4,0.22
2013-11-7,47.3,42.4,37.1,45.7,35.5,30.5,95,78,58,30.19,29.99,3,1,7,0.11
2013-11-8,44.6,37.4,31.9,35.2,32.5,29.6,94,83,63,30.35,30.17,2,0,7,0.00
2013-11-9,60.0,47.0,32.5,40.9,35.9,30.7,93,67,49,30.27,29.99,2,1,3,0.00
2013-11-10,46.6,41.8,31.0,40.5,33.6,28.1,89,73,59,30.34,30.03,3,1,7,0.00
2013-11-11,50.2,40.1,28.7,39.3,33.2,26.7,94,78,52,30.31,30.07,4,1,7,0.04
2013-11-12,31.6,27.8,24.8,30.0,23.8,20.7,95,85,75,30.61,30.25,3,1,5,0.06
2013-11-13,37.6,28.5,20.3,24.1,21.5,18.3,92,76,56,30.63,30.42,1,0,4,0.02
2013-11-14,52.2,38.0,25.6,29.1,25.1,21.7,85,62,39,30.40,30.17,2,1,4,0.00
2013-11-15,51.0,43.8,35.2,40.2,30.2,25.0,80,59,47,30.19,30.11,1,0,4,0.00
2013-11-16,57.9,51.9,44.0,53.4,47.9,40.4,89,86,83,30.16,29.92,2,1,3,0.00
2013-11-17,60.3,57.6,51.5,58.9,55.2,44.2,98,92,72,29.92,29.46,4,2,4,1.00
2013-11-18,49.8,44.3,36.0,42.7,36.8,29.2,87,76,58,30.15,29.70,5,2,7,0.00
2013-11-19,40.0,35.3,30.3,29.4,27.5,26.3,85,73,62,30.40,30.16,3,1,7,0.00
2013-11-20,47.4,36.5,25.8,32.9,28.2,23.0,90,73,57,30.41,30.28,3,1,4,0.00
2013-11-21,54.1,46.4,38.4,45.3,39.0,31.0,94,76,62,30.36,30.21,1,0,4,0.14
2013-11-22,51.6,46.4,35.4,51.1,44.3,29.2,98,93,78,30.35,30.15,3,1,5,0.27
2013-11-23,35.3,29.2,21.1,29.2,23.6,11.8,93,80,63,30.52,30.30,4,2,6,0.00
2013-11-24,25.2,19.5,15.5,13.9,11.4,8.6,85,71,56,30.68,30.54,3,1,6,0.00
2013-11-25,35.5,26.7,16.8,28.9,18.2,12.8,92,71,55,30.55,30.24,4,1,5,0.00
2013-11-26,33.6,31.5,30.0,32.3,30.0,28.5,95,94,93,30.23,29.91,1,0,5,0.05
2013-11-27,31.1,27.1,23.5,29.0,20.8,15.3,93,78,58,30.23,29.89,4,2,9,0.00
2013-11-28,29.8,26.0,21.4,23.0,20.3,18.4,89,79,69,30.45,30.26,1,0,9,0.00
2013-11-29,35.2,27.9,18.4,22.8,20.7,15.7,90,75,60,30.66,30.46,2,0,2,0.01
2013-11-30,43.3,31.6,23.3,32.7,26.2,20.5,91,81,66,30.59,30.21,1,0,2,0.03
2013-12-1,45.9,32.8,26.2,37.7,30.0,24.7,95,90,73,30.20,29.99,0,0,2,0.00
2013-12-2,41.2,36.7,32.9,36.4,34.0,31.1,94,90,83,29.98,29.85,1,0,2,0.01
2013-12-3,52.4,42.6,33.8,46.7,40.3,32.8,97,92,81,29.90,29.84,1,0,4,0.03
2013-12-4,60.9,52.7,43.9,55.4,48.9,42.0,95,87,81,29.91,29.75,2,1,6,0.00
2013-12-5,61.2,49.7,32.5,58.4,45.9,30.2,95,87,76,30.12,29.75,3,1,6,0.06
2013-12-6,32.6,28.8,25.8,29.8,27.0,24.1,94,93,89,30.39,30.11,2,1,4,0.01
2013-12-7,25.9,24.2,21.3,25.2,19.1,15.9,100,81,69,30.62,30.39,2,1,4,0.00
2013-12-8,30.1,24.3,16.1,29.1,21.0,13.9,96,87,79,30.58,30.05,2,1,3,0.00
2013-12-9,32.9,30.1,24.9,32.1,27.1,20.5,97,89,81,30.23,30.00,2,1,4,0.00
2013-12-10,26.3,21.8,18.5,19.8,16.1,13.2,92,79,67,30.34,30.14,5,1,5,0.01
2013-12-11,31.3,19.2,10.2,23.6,14.7,7.9,90,83,71,30.51,30.31,3,1,5,0.03
2013-12-12,19.1,14.7,8.5,9.4,7.0,5.2,86,71,57,30.56,30.36,1,0,3,0.00
2013-12-13,32.4,24.4,14.1,25.1,16.9,8.4,81,73,62,30.36,30.24,1,0,2,0.03
2013-12-14,36.0,33.0,30.5,35.2,32.0,28.1,97,96,90,30.25,29.72,4,1,5,0.25
2013-12-15,31.1,24.5,21.5,30.3,20.8,15.3,97,86,75,30.13,29.80,4,2,6,0.00
2013-12-16,26.9,22.4,17.9,25.7,18.8,14.9,95,86,78,30.20,30.04,1,0,4,0.00
2013-12-17,31.1,27.9,25.3,30.1,25.0,22.2,96,89,82,30.14,30.00,4,1,4,0.00
2013-12-18,28.6,26.5,23.2,24.3,21.2,18.6,92,80,68,30.26,30.09,1,0,4,0.00
2013-12-19,46.3,38.9,28.5,37.7,30.8,21.3,86,73,64,30.10,29.99,1,0,3,0.31
2013-12-20,56.8,50.8,45.6,55.1,44.6,35.9,96,80,64,29.98,29.83,2,1,2,0.00
2013-12-21,63.4,57.7,49.8,62.2,56.9,49.3,99,97,93,29.82,29.45,4,1,7,1.21
2013-12-22,63.4,54.0,41.2,61.9,50.8,39.6,99,89,76,29.98,29.51,3,1,7,0.62
2013-12-23,40.0,32.7,27.1,38.1,27.3,20.2,94,80,73,30.37,29.99,3,2,6,0.00
2013-12-24,26.7,16.7,10.7,21.7,12.0,6.6,90,82,74,30.60,30.34,3,1,6,0.00
2013-12-25,30.6,22.7,10.5,26.2,16.7,8.1,91,78,63,30.57,30.23,1,0,4,0.00
2013-12-26,36.1,31.8,28.3,27.0,23.8,19.8,85,73,52,30.36,30.18,4,1,5,0.00
2013-12-27,45.6,36.8,31.3,33.7,28.9,24.0,82,73,63,30.41,30.30,1,0,5,0.00
2013-12-28,51.8,40.6,31.5,37.9,32.7,28.1,87,74,59,30.26,30.05,1,0,3,0.00
2013-12-29,41.4,39.0,33.2,40.6,35.3,29.8,97,87,66,30.03,29.77,3,0,4,0.29
2013-12-30,31.7,26.2,23.3,27.4,21.3,18.3,88,81,75,30.25,29.99,3,1,4,0.00
2013-12-31,26.5,23.3,20.7,20.0,17.8,15.6,87,79,69,30.36,30.16,4,1,5,0.00
2014-1-1,38.1,29.3,20.3,30.2,24.8,17.8,91,84,73,30.34,30.11,2,0,4,0.00
2014-1-2,28.1,21.6,10.5,24.7,18.9,7.1,93,89,85,30.19,29.83,4,2,9,0.00